Time,TemperatureF,DewpointF,PressureIn,WindDirection,WindDirectionDegrees,WindSpeedMPH,WindSpeedGustMPH,Humidity,HourlyPrecipIn,Conditions,Clouds,dailyrainin,SoftwareType,DateUTC
2013-02-01 00:00:00,38.4,31.5,30.15,ESE,106,0.0,3.0,76,0.00,,---,0.00,VWS V14.01,2013-02-01 05:00:00,
2013-02-01 00:02:00,38.4,31.2,30.15,ENE,66,2.0,6.0,75,0.00,,---,0.00,VWS V14.01,2013-02-01 05:02:00,
2013-02-01 00:07:00,38.7,31.1,30.14,NNW,344,1.0,1.0,74,0.00,,---,0.00,VWS V14.01,2013-02-01 05:07:00,
2013-02-01 00:12:00,39.0,32.1,30.14,SSE,168,1.0,2.0,76,0.00,,---,0.00,VWS V14.01,2013-02-01 05:12:00,
2013-02-01 00:17:00,39.2,32.0,30.14,South,169,0.0,2.0,75,0.00,,---,0.00,VWS V14.01,2013-02-01 05:17:00,
2013-02-01 00:22:00,39.5,31.6,30.13,East,98,2.0,7.0,73,0.00,,---,0.00,VWS V14.01,2013-02-01 05:22:00,
2013-02-01 00:27:00,40.1,32.2,30.13,SSW,198,2.0,7.0,73,0.00,,---,0.00,VWS V14.01,2013-02-01 05:27:00,
2013-02-01 00:32:00,40.9,32.2,30.13,East,99,0.0,7.0,71,0.00,,---,0.00,VWS V14.01,2013-02-01 05:32:00,
2013-02-01 00:37:00,41.2,32.9,30.13,SSW,205,0.0,1.0,72,0.00,,---,0.00,VWS V14.01,2013-02-01 05:37:00,
2013-02-01 00:42:00,41.3,32.6,30.13,SSW,205,0.0,2.0,71,0.00,,---,0.00,VWS V14.01,2013-02-01 05:42:00,
2013-02-01 00:47:00,41.0,32.3,30.14,SSW,205,0.0,2.0,71,0.00,,---,0.00,VWS V14.01,2013-02-01 05:47:00,
2013-02-01 00:52:00,40.5,32.2,30.14,South,186,0.0,2.0,72,0.00,,---,0.00,VWS V14.01,2013-02-01 05:52:00,
2013-02-01 00:57:00,40.3,32.0,30.16,South,180,0.0,2.0,72,0.00,,---,0.00,VWS V14.01,2013-02-01 05:57:00,
2013-02-01 01:02:00,40.2,32.6,30.16,NE,53,1.0,2.0,74,0.00,,---,0.00,VWS V14.01,2013-02-01 06:02:00,
2013-02-01 01:07:00,40.1,32.5,30.16,NE,54,0.0,1.0,74,0.00,,---,0.00,VWS V14.01,2013-02-01 06:07:00,
2013-02-01 01:12:00,40.1,32.5,30.16,NE,54,1.0,1.0,74,0.00,,---,0.00,VWS V14.01,2013-02-01 06:12:00,
2013-02-01 01:17:00,40.0,33.1,30.16,NE,54,0.0,1.0,76,0.00,,---,0.00,VWS V14.01,2013-02-01 06:17:00,
2013-02-01 01:22:00,40.2,33.2,30.17,East,95,0.0,5.0,76,0.00,,---,0.00,VWS V14.01,2013-02-01 06:22:00,
2013-02-01 01:27:00,40.4,33.1,30.17,East,95,2.0,5.0,75,0.00,,---,0.00,VWS V14.01,2013-02-01 06:27:00,
2013-02-01 01:32:00,40.8,32.1,30.17,NNE,28,3.0,6.0,71,0.00,,---,0.00,VWS V14.01,2013-02-01 06:32:00,
2013-02-01 01:37:00,42.1,33.0,30.16,East,93,2.0,4.0,70,0.00,,---,0.00,VWS V14.01,2013-02-01 06:37:00,
2013-02-01 01:42:00,43.1,33.6,30.17,ESE,103,3.0,6.0,69,0.00,,---,0.00,VWS V14.01,2013-02-01 06:42:00,
2013-02-01 01:47:00,43.8,33.6,30.17,North,5,2.0,6.0,67,0.00,,---,0.00,VWS V14.01,2013-02-01 06:47:00,
2013-02-01 01:52:00,44.1,33.9,30.17,ESE,105,2.0,6.0,67,0.00,,---,0.00,VWS V14.01,2013-02-01 06:52:00,
2013-02-01 01:57:00,44.2,35.0,30.18,East,90,1.0,6.0,70,0.00,,---,0.00,VWS V14.01,2013-02-01 06:57:00,
2013-02-01 02:02:00,44.1,34.6,30.18,ENE,68,3.0,6.0,69,0.00,,---,0.00,VWS V14.01,2013-02-01 07:02:00,
2013-02-01 02:07:00,43.8,35.0,30.18,East,92,1.0,8.0,71,0.00,,---,0.00,VWS V14.01,2013-02-01 07:07:00,
2013-02-01 02:12:00,43.3,35.2,30.19,ENE,65,1.0,8.0,73,0.00,,---,0.00,VWS V14.01,2013-02-01 07:12:00,
2013-02-01 02:17:00,42.8,35.8,30.19,NE,51,2.0,8.0,76,0.00,,---,0.00,VWS V14.01,2013-02-01 07:17:00,
2013-02-01 02:22:00,42.1,35.8,30.20,ESE,102,3.0,9.0,78,0.00,,---,0.00,VWS V14.01,2013-02-01 07:22:00,
2013-02-01 02:27:00,41.5,35.8,30.21,East,98,1.0,9.0,80,0.00,,---,0.00,VWS V14.01,2013-02-01 07:27:00,
2013-02-01 02:32:00,40.9,35.5,30.22,NNE,13,3.0,9.0,81,0.00,,---,0.00,VWS V14.01,2013-02-01 07:32:00,
2013-02-01 02:37:00,39.7,34.7,30.22,East,84,0.0,4.0,82,0.00,,---,0.00,VWS V14.01,2013-02-01 07:37:00,
2013-02-01 02:42:00,38.8,34.4,30.23,NNW,344,3.0,4.0,84,0.00,,---,0.00,VWS V14.01,2013-02-01 07:42:00,
2013-02-01 02:47:00,38.2,33.8,30.23,North,360,1.0,4.0,84,0.00,,---,0.00,VWS V14.01,2013-02-01 07:47:00,
2013-02-01 02:52:00,37.7,33.6,30.23,NE,55,2.0,4.0,85,0.00,,---,0.00,VWS V14.01,2013-02-01 07:52:00,
2013-02-01 02:57:00,37.1,32.4,30.24,SE,126,3.0,7.0,83,0.00,,---,0.00,VWS V14.01,2013-02-01 07:57:00,
2013-02-01 03:02:00,36.8,32.4,30.25,ESE,111,2.0,7.0,84,0.00,,---,0.00,VWS V14.01,2013-02-01 08:02:00,
2013-02-01 03:07:00,36.5,31.8,30.24,NW,315,0.0,4.0,83,0.00,,---,0.00,VWS V14.01,2013-02-01 08:07:00,
2013-02-01 03:12:00,36.4,31.7,30.24,East,83,2.0,4.0,83,0.00,,---,0.00,VWS V14.01,2013-02-01 08:12:00,
2013-02-01 03:17:00,36.1,31.5,30.25,East,87,2.0,4.0,83,0.00,,---,0.00,VWS V14.01,2013-02-01 08:17:00,
2013-02-01 03:22:00,36.0,31.4,30.24,SE,127,1.0,6.0,83,0.00,,---,0.00,VWS V14.01,2013-02-01 08:22:00,
2013-02-01 03:27:00,35.7,29.8,30.25,East,101,2.0,7.0,79,0.00,,---,0.00,VWS V14.01,2013-02-01 08:27:00,
2013-02-01 03:32:00,35.4,29.5,30.25,East,87,1.0,7.0,79,0.00,,---,0.00,VWS V14.01,2013-02-01 08:32:00,
2013-02-01 03:37:00,35.2,29.4,30.25,North,350,3.0,11.0,79,0.00,,---,0.00,VWS V14.01,2013-02-01 08:37:00,
2013-02-01 03:42:00,34.9,29.1,30.26,NE,49,1.0,11.0,79,0.00,,---,0.00,VWS V14.01,2013-02-01 08:42:00,
2013-02-01 03:47:00,34.6,27.5,30.26,NNE,30,2.0,11.0,75,0.00,,---,0.00,VWS V14.01,2013-02-01 08:47:00,
2013-02-01 03:52:00,34.4,27.3,30.26,ENE,64,1.0,11.0,75,0.00,,---,0.00,VWS V14.01,2013-02-01 08:52:00,
2013-02-01 03:57:00,34.4,27.6,30.27,North,355,3.0,11.0,76,0.00,,---,0.00,VWS V14.01,2013-02-01 08:57:00,
2013-02-01 04:02:00,34.2,27.4,30.27,SW,214,0.0,11.0,76,0.00,,---,0.00,VWS V14.01,2013-02-01 09:02:00,
2013-02-01 04:07:00,34.1,27.7,30.27,WSW,243,0.0,3.0,77,0.00,,---,0.00,VWS V14.01,2013-02-01 09:07:00,
2013-02-01 04:12:00,34.0,27.6,30.27,West,262,3.0,4.0,77,0.00,,---,0.00,VWS V14.01,2013-02-01 09:12:00,
2013-02-01 04:17:00,34.0,27.9,30.28,WNW,288,0.0,4.0,78,0.00,,---,0.00,VWS V14.01,2013-02-01 09:17:00,
2013-02-01 04:22:00,34.0,27.9,30.29,NNW,330,0.0,6.0,78,0.00,,---,0.00,VWS V14.01,2013-02-01 09:22:00,
2013-02-01 04:27:00,33.8,27.4,30.29,ENE,74,3.0,6.0,77,0.00,,---,0.00,VWS V14.01,2013-02-01 09:27:00,
2013-02-01 04:32:00,33.4,26.7,30.30,NNE,32,2.0,6.0,76,0.00,,---,0.00,VWS V14.01,2013-02-01 09:32:00,
2013-02-01 04:37:00,33.0,26.6,30.30,WSW,254,2.0,4.0,77,0.00,,---,0.00,VWS V14.01,2013-02-01 09:37:00,
2013-02-01 04:42:00,32.6,25.6,30.31,NW,314,1.0,4.0,75,0.00,,---,0.00,VWS V14.01,2013-02-01 09:42:00,
2013-02-01 04:47:00,32.2,24.9,30.31,East,87,1.0,6.0,74,0.00,,---,0.00,VWS V14.01,2013-02-01 09:47:00,
2013-02-01 04:52:00,31.8,23.8,30.31,NE,41,2.0,6.0,72,0.00,,---,0.00,VWS V14.01,2013-02-01 09:52:00,
2013-02-01 04:57:00,31.5,23.2,30.32,SSW,196,1.0,11.0,71,0.00,,---,0.00,VWS V14.01,2013-02-01 09:57:00,
2013-02-01 05:02:00,31.1,21.8,30.32,NNW,343,1.0,11.0,68,0.00,,---,0.00,VWS V14.01,2013-02-01 10:02:00,
2013-02-01 05:07:00,30.6,21.3,30.33,West,277,2.0,5.0,68,0.00,,---,0.00,VWS V14.01,2013-02-01 10:07:00,
2013-02-01 05:12:00,30.2,20.9,30.33,West,265,0.0,5.0,68,0.00,,---,0.00,VWS V14.01,2013-02-01 10:12:00,
2013-02-01 05:17:00,29.9,20.3,30.33,WSW,246,2.0,5.0,67,0.00,,---,0.00,VWS V14.01,2013-02-01 10:17:00,
2013-02-01 05:22:00,29.7,20.5,30.34,North,360,1.0,5.0,68,0.00,,---,0.00,VWS V14.01,2013-02-01 10:22:00,
2013-02-01 05:26:00,29.5,20.6,30.34,ENE,61,2.0,5.0,69,0.00,,---,0.00,VWS V14.01,2013-02-01 10:26:00,
2013-02-01 05:31:00,29.5,20.9,30.34,WSW,252,1.0,5.0,70,0.00,,---,0.00,VWS V14.01,2013-02-01 10:31:00,
2013-02-01 05:36:00,29.5,20.9,30.35,SE,124,2.0,3.0,70,0.00,,---,0.00,VWS V14.01,2013-02-01 10:36:00,
2013-02-01 05:41:00,29.5,21.6,30.35,ESE,121,1.0,3.0,72,0.00,,---,0.00,VWS V14.01,2013-02-01 10:41:00,
2013-02-01 05:46:00,29.3,20.4,30.36,ENE,78,0.0,4.0,69,0.00,,---,0.00,VWS V14.01,2013-02-01 10:46:00,
2013-02-01 05:52:00,29.1,20.2,30.36,South,186,3.0,4.0,69,0.00,,---,0.00,VWS V14.01,2013-02-01 10:52:00,
2013-02-01 05:57:00,28.9,19.7,30.37,ENE,78,1.0,5.0,68,0.00,,---,0.00,VWS V14.01,2013-02-01 10:57:00,
2013-02-01 06:02:00,28.7,19.8,30.37,South,173,1.0,5.0,69,0.00,,---,0.00,VWS V14.01,2013-02-01 11:02:00,
2013-02-01 06:07:00,28.4,19.5,30.38,SE,142,2.0,2.0,69,0.00,,---,0.00,VWS V14.01,2013-02-01 11:07:00,
2013-02-01 06:12:00,28.2,19.4,30.39,South,175,0.0,2.0,69,0.00,,---,0.00,VWS V14.01,2013-02-01 11:12:00,
2013-02-01 06:17:00,28.0,20.2,30.39,East,98,1.0,4.0,72,0.00,,---,0.00,VWS V14.01,2013-02-01 11:17:00,
2013-02-01 06:22:00,27.8,19.6,30.39,SSW,211,1.0,4.0,71,0.00,,---,0.00,VWS V14.01,2013-02-01 11:22:00,
2013-02-01 06:27:00,27.5,19.4,30.40,SSW,211,0.0,4.0,71,0.00,,---,0.00,VWS V14.01,2013-02-01 11:27:00,
2013-02-01 06:31:00,27.2,19.4,30.40,NW,326,1.0,4.0,72,0.00,,---,0.00,VWS V14.01,2013-02-01 11:31:00,
2013-02-01 06:36:00,26.9,18.8,30.41,SW,220,1.0,3.0,71,0.00,,---,0.00,VWS V14.01,2013-02-01 11:36:00,
2013-02-01 06:41:00,26.4,18.3,30.41,WSW,248,0.0,3.0,71,0.00,,---,0.00,VWS V14.01,2013-02-01 11:41:00,
2013-02-01 06:46:00,26.1,18.0,30.42,SSW,194,1.0,5.0,71,0.00,,---,0.00,VWS V14.01,2013-02-01 11:46:00,
2013-02-01 06:51:00,25.7,17.3,30.42,WSW,245,1.0,9.0,70,0.00,,---,0.00,VWS V14.01,2013-02-01 11:51:00,
2013-02-01 06:56:00,25.2,16.5,30.43,West,259,1.0,9.0,69,0.00,,---,0.00,VWS V14.01,2013-02-01 11:56:00,
2013-02-01 07:01:00,24.9,16.2,30.44,South,182,1.0,9.0,69,0.00,,---,0.00,VWS V14.01,2013-02-01 12:01:00,
2013-02-01 07:06:00,24.5,16.1,30.44,West,275,4.0,4.0,70,0.00,,---,0.00,VWS V14.01,2013-02-01 12:06:00,
2013-02-01 07:11:00,24.2,16.2,30.45,WSW,246,4.0,5.0,71,0.00,,---,0.00,VWS V14.01,2013-02-01 12:11:00,
2013-02-01 07:16:00,23.9,15.6,30.45,West,260,1.0,5.0,70,0.00,,---,0.00,VWS V14.01,2013-02-01 12:16:00,
2013-02-01 07:21:00,23.7,15.4,30.46,SW,218,1.0,7.0,70,0.00,,---,0.00,VWS V14.01,2013-02-01 12:21:00,
2013-02-01 07:26:00,23.5,14.8,30.46,East,88,1.0,9.0,69,0.00,,---,0.00,VWS V14.01,2013-02-01 12:26:00,
2013-02-01 07:31:00,23.4,14.8,30.47,SSW,204,0.0,9.0,69,0.00,,---,0.00,VWS V14.01,2013-02-01 12:31:00,
2013-02-01 07:36:00,23.4,15.7,30.47,WSW,258,0.0,2.0,72,0.00,,---,0.00,VWS V14.01,2013-02-01 12:36:00,
2013-02-01 07:41:00,23.3,15.6,30.47,SSW,210,1.0,7.0,72,0.00,,---,0.00,VWS V14.01,2013-02-01 12:41:00,
2013-02-01 07:46:00,23.3,15.3,30.47,WSW,256,0.0,7.0,71,0.00,,---,0.00,VWS V14.01,2013-02-01 12:46:00,
2013-02-01 07:51:00,23.3,15.0,30.47,East,85,4.0,7.0,70,0.00,,---,0.00,VWS V14.01,2013-02-01 12:51:00,
2013-02-01 07:56:00,23.3,14.6,30.47,East,90,1.0,7.0,69,0.00,,---,0.00,VWS V14.01,2013-02-01 12:56:00,
2013-02-01 08:01:00,23.3,14.3,30.48,ENE,61,2.0,7.0,68,0.00,,---,0.00,VWS V14.01,2013-02-01 13:01:00,
2013-02-01 08:06:00,23.3,14.6,30.48,ESE,111,2.0,4.0,69,0.00,,---,0.00,VWS V14.01,2013-02-01 13:06:00,
2013-02-01 08:11:00,23.3,15.0,30.49,ENE,74,1.0,4.0,70,0.00,,---,0.00,VWS V14.01,2013-02-01 13:11:00,
2013-02-01 08:16:00,23.2,14.6,30.50,East,101,2.0,4.0,69,0.00,,---,0.00,VWS V14.01,2013-02-01 13:16:00,
2013-02-01 08:21:00,23.1,14.5,30.50,East,84,1.0,4.0,69,0.00,,---,0.00,VWS V14.01,2013-02-01 13:21:00,
2013-02-01 08:26:00,22.9,14.3,30.50,NE,48,0.0,5.0,69,0.00,,---,0.00,VWS V14.01,2013-02-01 13:26:00,
2013-02-01 08:31:00,22.7,13.7,30.50,East,95,1.0,5.0,68,0.00,,---,0.00,VWS V14.01,2013-02-01 13:31:00,
2013-02-01 08:36:00,22.5,14.2,30.50,East,90,1.0,2.0,70,0.00,,---,0.00,VWS V14.01,2013-02-01 13:36:00,
2013-02-01 08:41:00,22.3,13.7,30.51,East,88,1.0,3.0,69,0.00,,---,0.00,VWS V14.01,2013-02-01 13:41:00,
2013-02-01 08:46:00,22.3,14.3,30.51,WNW,299,1.0,4.0,71,0.00,,---,0.00,VWS V14.01,2013-02-01 13:46:00,
2013-02-01 08:51:00,22.6,14.6,30.51,North,360,1.0,4.0,71,0.00,,---,0.00,VWS V14.01,2013-02-01 13:51:00,
2013-02-01 08:56:00,22.8,14.8,30.51,NW,325,1.0,4.0,71,0.00,,---,0.00,VWS V14.01,2013-02-01 13:56:00,
2013-02-01 09:01:00,23.1,14.5,30.52,ENE,63,1.0,4.0,69,0.00,,---,0.00,VWS V14.01,2013-02-01 14:01:00,
2013-02-01 09:07:00,23.4,14.1,30.52,South,190,1.0,4.0,67,0.00,,---,0.00,VWS V14.01,2013-02-01 14:07:00,
2013-02-01 09:11:00,23.6,14.9,30.52,WSW,253,8.0,8.0,69,0.00,,---,0.00,VWS V14.01,2013-02-01 14:11:00,
2013-02-01 09:16:00,23.6,14.6,30.52,WSW,249,4.0,9.0,68,0.00,,---,0.00,VWS V14.01,2013-02-01 14:16:00,
2013-02-01 09:21:00,23.7,14.7,30.52,SW,222,5.0,9.0,68,0.00,,---,0.00,VWS V14.01,2013-02-01 14:21:00,
2013-02-01 09:26:00,24.0,15.0,30.53,WNW,282,3.0,9.0,68,0.00,,---,0.00,VWS V14.01,2013-02-01 14:26:00,
2013-02-01 09:31:00,24.5,15.1,30.53,South,190,2.0,10.0,67,0.00,,---,0.00,VWS V14.01,2013-02-01 14:31:00,
2013-02-01 09:36:00,25.2,15.8,30.53,SW,234,1.0,2.0,67,0.00,,---,0.00,VWS V14.01,2013-02-01 14:36:00,
2013-02-01 09:41:00,26.1,16.0,30.54,South,189,2.0,5.0,65,0.00,,---,0.00,VWS V14.01,2013-02-01 14:41:00,
2013-02-01 09:46:00,26.6,16.4,30.53,West,267,2.0,7.0,65,0.00,,---,0.00,VWS V14.01,2013-02-01 14:46:00,
2013-02-01 09:51:00,27.4,16.8,30.53,WSW,255,2.0,7.0,64,0.00,,---,0.00,VWS V14.01,2013-02-01 14:51:00,
2013-02-01 09:56:00,28.3,17.3,30.54,West,267,5.0,7.0,63,0.00,,---,0.00,VWS V14.01,2013-02-01 14:56:00,
2013-02-01 10:01:00,28.7,17.3,30.53,WNW,290,0.0,11.0,62,0.00,,---,0.00,VWS V14.01,2013-02-01 15:01:00,
2013-02-01 10:06:00,28.9,16.4,30.53,NW,305,3.0,5.0,59,0.00,,---,0.00,VWS V14.01,2013-02-01 15:06:00,
2013-02-01 10:11:00,29.1,16.6,30.53,WSW,257,3.0,10.0,59,0.00,,---,0.00,VWS V14.01,2013-02-01 15:11:00,
2013-02-01 10:16:00,29.3,17.1,30.54,SW,230,1.0,10.0,60,0.00,,---,0.00,VWS V14.01,2013-02-01 15:16:00,
2013-02-01 10:21:00,29.7,17.9,30.54,West,263,4.0,10.0,61,0.00,,---,0.00,VWS V14.01,2013-02-01 15:21:00,
2013-02-01 10:26:00,29.6,16.6,30.53,SE,133,2.0,10.0,58,0.00,,---,0.00,VWS V14.01,2013-02-01 15:26:00,
2013-02-01 10:31:00,29.7,17.1,30.54,SE,140,8.0,10.0,59,0.00,,---,0.00,VWS V14.01,2013-02-01 15:31:00,
2013-02-01 10:36:00,29.4,16.5,30.54,West,259,6.0,9.0,58,0.00,,---,0.00,VWS V14.01,2013-02-01 15:36:00,
2013-02-01 10:41:00,29.8,17.2,30.54,West,262,7.0,10.0,59,0.00,,---,0.00,VWS V14.01,2013-02-01 15:41:00,
2013-02-01 10:46:00,30.5,17.9,30.54,WSW,241,0.0,10.0,59,0.00,,---,0.00,VWS V14.01,2013-02-01 15:46:00,
2013-02-01 10:51:00,31.1,17.7,30.54,West,273,2.0,10.0,57,0.00,,---,0.00,VWS V14.01,2013-02-01 15:51:00,
2013-02-01 10:56:00,31.4,18.7,30.54,WSW,238,1.0,10.0,59,0.00,,---,0.00,VWS V14.01,2013-02-01 15:56:00,
2013-02-01 11:01:00,31.9,18.8,30.54,South,182,1.0,10.0,58,0.00,,---,0.00,VWS V14.01,2013-02-01 16:01:00,
2013-02-01 11:06:00,31.9,18.0,30.54,NNE,24,1.0,3.0,56,0.00,,---,0.00,VWS V14.01,2013-02-01 16:06:00,
2013-02-01 11:11:00,32.0,16.4,30.54,NE,36,4.0,4.0,52,0.00,,---,0.00,VWS V14.01,2013-02-01 16:11:00,
2013-02-01 11:16:00,31.6,16.9,30.54,West,272,3.0,4.0,54,0.00,,---,0.00,VWS V14.01,2013-02-01 16:16:00,
2013-02-01 11:21:00,32.1,18.6,30.53,WSW,253,2.0,10.0,57,0.00,,---,0.00,VWS V14.01,2013-02-01 16:21:00,
2013-02-01 11:26:00,32.6,19.1,30.53,SW,225,2.0,10.0,57,0.00,,---,0.00,VWS V14.01,2013-02-01 16:26:00,
2013-02-01 11:31:00,32.5,17.3,30.53,NE,34,0.0,10.0,53,0.00,,---,0.00,VWS V14.01,2013-02-01 16:31:00,
2013-02-01 11:36:00,32.6,17.8,30.53,SW,232,5.0,5.0,54,0.00,,---,0.00,VWS V14.01,2013-02-01 16:36:00,
2013-02-01 11:41:00,33.3,19.7,30.53,WSW,253,4.0,6.0,57,0.00,,---,0.00,VWS V14.01,2013-02-01 16:41:00,
2013-02-01 11:46:00,33.9,20.3,30.53,North,349,1.0,6.0,57,0.00,,---,0.00,VWS V14.01,2013-02-01 16:46:00,
2013-02-01 11:51:00,34.8,20.3,30.53,NW,309,7.0,7.0,55,0.00,,---,0.00,VWS V14.01,2013-02-01 16:51:00,
2013-02-01 11:56:00,34.3,19.4,30.53,NNW,338,2.0,10.0,54,0.00,,---,0.00,VWS V14.01,2013-02-01 16:56:00,
2013-02-01 12:01:00,34.4,19.9,30.53,West,263,2.0,10.0,55,0.00,,---,0.00,VWS V14.01,2013-02-01 17:01:00,
2013-02-01 12:06:00,34.7,18.0,30.53,NE,56,4.0,4.0,50,0.00,,---,0.00,VWS V14.01,2013-02-01 17:06:00,
2013-02-01 12:11:00,33.9,17.2,30.53,ESE,111,3.0,4.0,50,0.00,,---,0.00,VWS V14.01,2013-02-01 17:11:00,
2013-02-01 12:16:00,34.0,19.1,30.53,SW,219,2.0,5.0,54,0.00,,---,0.00,VWS V14.01,2013-02-01 17:16:00,
2013-02-01 12:21:00,34.6,18.3,30.52,South,171,2.0,6.0,51,0.00,,---,0.00,VWS V14.01,2013-02-01 17:21:00,
2013-02-01 12:26:00,34.8,18.1,30.52,South,190,2.0,6.0,50,0.00,,---,0.00,VWS V14.01,2013-02-01 17:26:00,
2013-02-01 12:31:00,35.1,15.9,30.52,NE,55,3.0,6.0,45,0.00,,---,0.00,VWS V14.01,2013-02-01 17:31:00,
2013-02-01 12:36:00,34.6,16.5,30.52,East,94,2.0,3.0,47,0.00,,---,0.00,VWS V14.01,2013-02-01 17:36:00,
2013-02-01 12:41:00,34.8,17.1,30.51,NNW,327,0.0,6.0,48,0.00,,---,0.00,VWS V14.01,2013-02-01 17:41:00,
2013-02-01 12:46:00,34.7,17.0,30.51,ESE,109,3.0,6.0,48,0.00,,---,0.00,VWS V14.01,2013-02-01 17:46:00,
2013-02-01 12:51:00,34.4,16.8,30.50,SW,228,3.0,7.0,48,0.00,,---,0.00,VWS V14.01,2013-02-01 17:51:00,
2013-02-01 12:56:00,34.4,17.2,30.50,NNE,13,3.0,7.0,49,0.00,,---,0.00,VWS V14.01,2013-02-01 17:56:00,
2013-02-01 13:01:00,34.8,17.1,30.50,West,260,7.0,7.0,48,0.00,,---,0.00,VWS V14.01,2013-02-01 18:01:00,
2013-02-01 13:06:00,35.2,16.5,30.50,NNW,330,1.0,7.0,46,0.00,,---,0.00,VWS V14.01,2013-02-01 18:06:00,
2013-02-01 13:11:00,35.4,18.1,30.49,West,263,2.0,7.0,49,0.00,,---,0.00,VWS V14.01,2013-02-01 18:11:00,
2013-02-01 13:16:00,36.0,17.2,30.49,West,273,3.0,7.0,46,0.00,,---,0.00,VWS V14.01,2013-02-01 18:16:00,
2013-02-01 13:21:00,36.4,16.6,30.49,West,261,5.0,7.0,44,0.00,,---,0.00,VWS V14.01,2013-02-01 18:21:00,
2013-02-01 13:26:00,36.7,17.9,30.48,SW,225,3.0,7.0,46,0.00,,---,0.00,VWS V14.01,2013-02-01 18:26:00,
2013-02-01 13:31:00,36.8,18.0,30.48,West,261,3.0,7.0,46,0.00,,---,0.00,VWS V14.01,2013-02-01 18:31:00,
2013-02-01 13:36:00,36.6,17.8,30.48,West,265,4.0,5.0,46,0.00,,---,0.00,VWS V14.01,2013-02-01 18:36:00,
2013-02-01 13:41:00,36.5,17.2,30.48,NE,38,3.0,5.0,45,0.00,,---,0.00,VWS V14.01,2013-02-01 18:41:00,
2013-02-01 13:46:00,36.5,17.7,30.47,West,280,1.0,5.0,46,0.00,,---,0.00,VWS V14.01,2013-02-01 18:46:00,
2013-02-01 13:51:00,36.9,18.6,30.47,WSW,257,2.0,10.0,47,0.00,,---,0.00,VWS V14.01,2013-02-01 18:51:00,
2013-02-01 13:56:00,37.0,17.1,30.47,SW,234,2.0,11.0,44,0.00,,---,0.00,VWS V14.01,2013-02-01 18:56:00,
2013-02-01 14:01:00,37.1,16.1,30.47,NE,44,3.0,11.0,42,0.00,,---,0.00,VWS V14.01,2013-02-01 19:01:00,
2013-02-01 14:06:00,36.9,16.5,30.47,SSW,205,1.0,2.0,43,0.00,,---,0.00,VWS V14.01,2013-02-01 19:06:00,
2013-02-01 14:11:00,37.1,17.7,30.47,WSW,246,2.0,6.0,45,0.00,,---,0.00,VWS V14.01,2013-02-01 19:11:00,
2013-02-01 14:16:00,37.2,16.8,30.47,South,188,1.0,6.0,43,0.00,,---,0.00,VWS V14.01,2013-02-01 19:16:00,
2013-02-01 14:21:00,37.0,15.5,30.47,ENE,75,1.0,6.0,41,0.00,,---,0.00,VWS V14.01,2013-02-01 19:21:00,
2013-02-01 14:26:00,36.7,16.3,30.47,SSW,201,2.0,6.0,43,0.00,,---,0.00,VWS V14.01,2013-02-01 19:26:00,
2013-02-01 14:31:00,36.7,16.3,30.47,West,272,1.0,10.0,43,0.00,,---,0.00,VWS V14.01,2013-02-01 19:31:00,
2013-02-01 14:36:00,36.8,16.4,30.47,West,263,1.0,7.0,43,0.00,,---,0.00,VWS V14.01,2013-02-01 19:36:00,
2013-02-01 14:41:00,37.2,17.8,30.47,North,360,2.0,7.0,45,0.00,,---,0.00,VWS V14.01,2013-02-01 19:41:00,
2013-02-01 14:46:00,37.8,17.9,30.47,WSW,242,4.0,7.0,44,0.00,,---,0.00,VWS V14.01,2013-02-01 19:46:00,
2013-02-01 14:51:00,38.2,16.6,30.47,SE,132,1.0,7.0,41,0.00,,---,0.00,VWS V14.01,2013-02-01 19:51:00,
2013-02-01 14:56:00,38.1,14.8,30.47,SE,146,1.0,7.0,38,0.00,,---,0.00,VWS V14.01,2013-02-01 19:56:00,
2013-02-01 15:01:00,38.1,15.9,30.47,East,97,2.0,7.0,40,0.00,,---,0.00,VWS V14.01,2013-02-01 20:01:00,
2013-02-01 15:06:00,38.4,17.3,30.47,WNW,284,2.0,3.0,42,0.00,,---,0.00,VWS V14.01,2013-02-01 20:06:00,
2013-02-01 15:11:00,38.8,17.1,30.47,WSW,252,3.0,4.0,41,0.00,,---,0.00,VWS V14.01,2013-02-01 20:11:00,
2013-02-01 15:16:00,38.9,16.6,30.47,NE,38,2.0,5.0,40,0.00,,---,0.00,VWS V14.01,2013-02-01 20:16:00,
2013-02-01 15:21:00,38.8,16.6,30.47,WSW,244,1.0,5.0,40,0.00,,---,0.00,VWS V14.01,2013-02-01 20:21:00,
2013-02-01 15:26:00,38.4,15.6,30.46,West,268,2.0,5.0,39,0.00,,---,0.00,VWS V14.01,2013-02-01 20:26:00,
2013-02-01 15:31:00,38.0,16.4,30.46,South,185,2.0,5.0,41,0.00,,---,0.00,VWS V14.01,2013-02-01 20:31:00,
2013-02-01 15:36:00,37.6,14.9,30.46,SSW,203,2.0,4.0,39,0.00,,---,0.00,VWS V14.01,2013-02-01 20:36:00,
2013-02-01 15:41:00,37.3,15.2,30.46,NNW,338,0.0,4.0,40,0.00,,---,0.00,VWS V14.01,2013-02-01 20:41:00,
2013-02-01 15:46:00,37.1,15.0,30.46,North,350,1.0,4.0,40,0.00,,---,0.00,VWS V14.01,2013-02-01 20:46:00,
2013-02-01 15:51:00,37.0,14.9,30.46,South,175,1.0,4.0,40,0.00,,---,0.00,VWS V14.01,2013-02-01 20:51:00,
2013-02-01 15:56:00,36.9,13.7,30.46,NE,51,1.0,5.0,38,0.00,,---,0.00,VWS V14.01,2013-02-01 20:56:00,
2013-02-01 16:01:00,36.7,14.1,30.46,NNE,26,2.0,5.0,39,0.00,,---,0.00,VWS V14.01,2013-02-01 21:01:00,
2013-02-01 16:06:00,36.6,14.0,30.46,ENE,74,2.0,3.0,39,0.00,,---,0.00,VWS V14.01,2013-02-01 21:06:00,
2013-02-01 16:11:00,36.4,13.2,30.46,ENE,75,1.0,4.0,38,0.00,,---,0.00,VWS V14.01,2013-02-01 21:11:00,
2013-02-01 16:16:00,36.4,14.4,30.46,ESE,106,1.0,4.0,40,0.00,,---,0.00,VWS V14.01,2013-02-01 21:16:00,
2013-02-01 16:21:00,36.5,15.6,30.46,NNE,16,1.0,4.0,42,0.00,,---,0.00,VWS V14.01,2013-02-01 21:21:00,
2013-02-01 16:26:00,36.4,13.8,30.46,East,83,0.0,4.0,39,0.00,,---,0.00,VWS V14.01,2013-02-01 21:26:00,
2013-02-01 16:31:00,36.4,13.8,30.47,ENE,71,1.0,4.0,39,0.00,,---,0.00,VWS V14.01,2013-02-01 21:31:00,
2013-02-01 16:36:00,36.3,13.7,30.46,NNE,13,0.0,3.0,39,0.00,,---,0.00,VWS V14.01,2013-02-01 21:36:00,
2013-02-01 16:41:00,36.1,14.1,30.46,ESE,102,1.0,3.0,40,0.00,,---,0.00,VWS V14.01,2013-02-01 21:41:00,
2013-02-01 16:46:00,35.9,14.5,30.46,SE,135,1.0,3.0,41,0.00,,---,0.00,VWS V14.01,2013-02-01 21:46:00,
2013-02-01 16:51:00,35.9,13.4,30.46,ENE,64,1.0,4.0,39,0.00,,---,0.00,VWS V14.01,2013-02-01 21:51:00,
2013-02-01 16:56:00,35.7,12.6,30.46,NE,52,2.0,4.0,38,0.00,,---,0.00,VWS V14.01,2013-02-01 21:56:00,
2013-02-01 17:01:00,35.6,11.9,30.47,NE,56,1.0,4.0,37,0.00,,---,0.00,VWS V14.01,2013-02-01 22:01:00,
2013-02-01 17:06:00,35.5,12.4,30.47,East,83,2.0,2.0,38,0.00,,---,0.00,VWS V14.01,2013-02-01 22:06:00,
2013-02-01 17:11:00,35.4,12.9,30.47,ENE,74,1.0,3.0,39,0.00,,---,0.00,VWS V14.01,2013-02-01 22:11:00,
2013-02-01 17:16:00,35.3,11.6,30.46,East,83,0.0,3.0,37,0.00,,---,0.00,VWS V14.01,2013-02-01 22:16:00,
2013-02-01 17:21:00,35.1,12.1,30.47,East,83,1.0,3.0,38,0.00,,---,0.00,VWS V14.01,2013-02-01 22:21:00,
2013-02-01 17:26:00,34.9,14.1,30.47,East,83,1.0,3.0,42,0.00,,---,0.00,VWS V14.01,2013-02-01 22:26:00,
2013-02-01 17:31:00,34.6,13.3,30.47,East,87,1.0,4.0,41,0.00,,---,0.00,VWS V14.01,2013-02-01 22:31:00,
2013-02-01 17:36:00,34.4,13.7,30.47,East,87,0.0,0.0,42,0.00,,---,0.00,VWS V14.01,2013-02-01 22:36:00,
2013-02-01 17:41:00,34.4,16.3,30.47,East,87,0.0,1.0,47,0.00,,---,0.00,VWS V14.01,2013-02-01 22:41:00,
2013-02-01 17:46:00,33.9,14.8,30.48,ENE,63,0.0,2.0,45,0.00,,---,0.00,VWS V14.01,2013-02-01 22:46:00,
2013-02-01 17:51:00,33.5,14.4,30.47,SE,141,0.0,2.0,45,0.00,,---,0.00,VWS V14.01,2013-02-01 22:51:00,
2013-02-01 17:56:00,33.1,15.1,30.47,SE,140,0.0,2.0,47,0.00,,---,0.00,VWS V14.01,2013-02-01 22:56:00,
2013-02-01 18:01:00,32.7,14.7,30.47,SE,140,0.0,2.0,47,0.00,,---,0.00,VWS V14.01,2013-02-01 23:01:00,
2013-02-01 18:06:00,32.3,14.8,30.49,SE,140,0.0,1.0,48,0.00,,---,0.00,VWS V14.01,2013-02-01 23:06:00,
2013-02-01 18:11:00,31.9,14.4,30.48,SE,140,0.0,1.0,48,0.00,,---,0.00,VWS V14.01,2013-02-01 23:11:00,
2013-02-01 18:16:00,31.4,15.4,30.49,SE,140,0.0,1.0,51,0.00,,---,0.00,VWS V14.01,2013-02-01 23:16:00,
2013-02-01 18:21:00,31.1,15.5,30.49,SE,140,0.0,1.0,52,0.00,,---,0.00,VWS V14.01,2013-02-01 23:21:00,
2013-02-01 18:26:00,30.7,15.2,30.49,SE,140,0.0,1.0,52,0.00,,---,0.00,VWS V14.01,2013-02-01 23:26:00,
2013-02-01 18:31:00,30.4,16.6,30.49,SE,140,0.0,1.0,56,0.00,,---,0.00,VWS V14.01,2013-02-01 23:31:00,
2013-02-01 18:36:00,30.0,16.2,30.50,SE,140,0.0,0.0,56,0.00,,---,0.00,VWS V14.01,2013-02-01 23:36:00,
2013-02-01 18:41:00,29.7,16.4,30.50,SE,140,0.0,0.0,57,0.00,,---,0.00,VWS V14.01,2013-02-01 23:41:00,
2013-02-01 18:46:00,29.5,16.2,30.50,SE,140,1.0,1.0,57,0.00,,---,0.00,VWS V14.01,2013-02-01 23:46:00,
2013-02-01 18:51:00,29.3,17.1,30.50,SE,140,0.0,1.0,60,0.00,,---,0.00,VWS V14.01,2013-02-01 23:51:00,
2013-02-01 18:56:00,29.1,17.7,30.50,SE,140,0.0,1.0,62,0.00,,---,0.00,VWS V14.01,2013-02-01 23:56:00,
2013-02-01 19:01:00,29.0,16.9,30.50,SE,140,0.0,1.0,60,0.00,,---,0.00,VWS V14.01,2013-02-02 00:01:00,
2013-02-01 19:06:00,28.9,16.4,30.50,SE,140,0.0,0.0,59,0.00,,---,0.00,VWS V14.01,2013-02-02 00:06:00,
2013-02-01 19:11:00,28.8,17.1,30.50,SE,140,0.0,0.0,61,0.00,,---,0.00,VWS V14.01,2013-02-02 00:11:00,
2013-02-01 19:16:00,28.7,17.3,30.50,SE,140,0.0,0.0,62,0.00,,---,0.00,VWS V14.01,2013-02-02 00:16:00,
2013-02-01 19:21:00,28.5,17.1,30.50,SE,140,0.0,0.0,62,0.00,,---,0.00,VWS V14.01,2013-02-02 00:21:00,
2013-02-01 19:26:00,28.5,17.1,30.51,SE,140,0.0,0.0,62,0.00,,---,0.00,VWS V14.01,2013-02-02 00:26:00,
2013-02-01 19:31:00,28.4,17.8,30.51,SE,140,0.0,0.0,64,0.00,,---,0.00,VWS V14.01,2013-02-02 00:31:00,
2013-02-01 19:36:00,28.2,17.2,30.51,SE,140,0.0,0.0,63,0.00,,---,0.00,VWS V14.01,2013-02-02 00:36:00,
2013-02-01 19:41:00,28.0,17.4,30.51,SE,140,0.0,0.0,64,0.00,,---,0.00,VWS V14.01,2013-02-02 00:41:00,
2013-02-01 19:46:00,27.8,17.2,30.51,SE,140,0.0,0.0,64,0.00,,---,0.00,VWS V14.01,2013-02-02 00:46:00,
2013-02-01 19:51:00,27.6,17.4,30.51,SE,140,0.0,0.0,65,0.00,,---,0.00,VWS V14.01,2013-02-02 00:51:00,
2013-02-01 19:56:00,27.4,17.2,30.51,SE,140,0.0,0.0,65,0.00,,---,0.00,VWS V14.01,2013-02-02 00:56:00,
2013-02-01 20:01:00,27.2,17.7,30.50,SE,140,0.0,0.0,67,0.00,,---,0.00,VWS V14.01,2013-02-02 01:01:00,
2013-02-01 20:06:00,27.1,18.6,30.50,SE,140,0.0,0.0,70,0.00,,---,0.00,VWS V14.01,2013-02-02 01:06:00,
2013-02-01 20:12:00,27.1,18.0,30.50,SE,140,0.0,1.0,68,0.00,,---,0.00,VWS V14.01,2013-02-02 01:12:00,
2013-02-01 20:17:00,27.0,18.2,30.50,SE,140,0.0,1.0,69,0.00,,---,0.00,VWS V14.01,2013-02-02 01:17:00,
2013-02-01 20:22:00,27.1,19.3,30.51,SE,140,0.0,1.0,72,0.00,,---,0.00,VWS V14.01,2013-02-02 01:22:00,
2013-02-01 20:27:00,27.0,19.2,30.51,SE,140,0.0,1.0,72,0.00,,---,0.00,VWS V14.01,2013-02-02 01:27:00,
2013-02-01 20:32:00,27.0,19.2,30.51,SE,140,0.0,1.0,72,0.00,,---,0.00,VWS V14.01,2013-02-02 01:32:00,
2013-02-01 20:37:00,26.9,19.4,30.51,SE,140,0.0,0.0,73,0.00,,---,0.00,VWS V14.01,2013-02-02 01:37:00,
2013-02-01 20:42:00,26.9,18.8,30.51,SE,140,0.0,0.0,71,0.00,,---,0.00,VWS V14.01,2013-02-02 01:42:00,
2013-02-01 20:47:00,26.8,18.7,30.51,SE,140,0.0,0.0,71,0.00,,---,0.00,VWS V14.01,2013-02-02 01:47:00,
2013-02-01 20:52:00,26.6,18.8,30.51,SE,140,0.0,0.0,72,0.00,,---,0.00,VWS V14.01,2013-02-02 01:52:00,
2013-02-01 20:57:00,26.5,19.0,30.51,SE,140,0.0,0.0,73,0.00,,---,0.00,VWS V14.01,2013-02-02 01:57:00,
2013-02-01 21:02:00,26.2,18.4,30.50,SE,140,0.0,0.0,72,0.00,,---,0.00,VWS V14.01,2013-02-02 02:02:00,
2013-02-01 21:07:00,26.1,18.3,30.50,SE,140,0.0,0.0,72,0.00,,---,0.00,VWS V14.01,2013-02-02 02:07:00,
2013-02-01 21:12:00,25.9,19.1,30.50,SE,140,0.0,0.0,75,0.00,,---,0.00,VWS V14.01,2013-02-02 02:12:00,
2013-02-01 21:17:00,25.8,18.4,30.50,SE,140,0.0,0.0,73,0.00,,---,0.00,VWS V14.01,2013-02-02 02:17:00,
2013-02-01 21:22:00,25.8,18.4,30.50,SE,140,0.0,0.0,73,0.00,,---,0.00,VWS V14.01,2013-02-02 02:22:00,
2013-02-01 21:27:00,25.8,18.4,30.50,SE,140,0.0,0.0,73,0.00,,---,0.00,VWS V14.01,2013-02-02 02:27:00,
2013-02-01 21:32:00,25.8,18.7,30.51,SE,140,0.0,0.0,74,0.00,,---,0.00,VWS V14.01,2013-02-02 02:32:00,
2013-02-01 21:37:00,25.7,18.3,30.50,SE,140,0.0,0.0,73,0.00,,---,0.00,VWS V14.01,2013-02-02 02:37:00,
2013-02-01 21:42:00,25.5,18.4,30.50,SE,140,0.0,0.0,74,0.00,,---,0.00,VWS V14.01,2013-02-02 02:42:00,
2013-02-01 21:47:00,25.4,18.6,30.50,SE,140,0.0,0.0,75,0.00,,---,0.00,VWS V14.01,2013-02-02 02:47:00,
2013-02-01 21:52:00,25.3,18.5,30.50,SE,140,0.0,0.0,75,0.00,,---,0.00,VWS V14.01,2013-02-02 02:52:00,
2013-02-01 21:57:00,25.3,18.2,30.51,SE,140,0.0,0.0,74,0.00,,---,0.00,VWS V14.01,2013-02-02 02:57:00,
2013-02-01 22:02:00,25.3,18.5,30.51,SE,140,0.0,0.0,75,0.00,,---,0.00,VWS V14.01,2013-02-02 03:02:00,
2013-02-01 22:07:00,25.2,18.4,30.51,SE,140,0.0,0.0,75,0.00,,---,0.00,VWS V14.01,2013-02-02 03:07:00,
2013-02-01 22:12:00,25.1,18.0,30.50,SE,140,0.0,0.0,74,0.00,,---,0.00,VWS V14.01,2013-02-02 03:12:00,
2013-02-01 22:17:00,24.9,18.4,30.50,SE,140,0.0,0.0,76,0.00,,---,0.00,VWS V14.01,2013-02-02 03:17:00,
2013-02-01 22:22:00,24.7,18.2,30.51,SE,140,0.0,0.0,76,0.00,,---,0.00,VWS V14.01,2013-02-02 03:22:00,
2013-02-01 22:27:00,24.6,18.7,30.51,SE,140,0.0,0.0,78,0.00,,---,0.00,VWS V14.01,2013-02-02 03:27:00,
2013-02-01 22:32:00,24.5,18.9,30.51,SE,140,0.0,0.0,79,0.00,,---,0.00,VWS V14.01,2013-02-02 03:32:00,
2013-02-01 22:37:00,24.5,18.6,30.51,SE,140,0.0,0.0,78,0.00,,---,0.00,VWS V14.01,2013-02-02 03:37:00,
2013-02-01 22:42:00,24.5,18.6,30.50,SE,140,0.0,0.0,78,0.00,,---,0.00,VWS V14.01,2013-02-02 03:42:00,
2013-02-01 22:47:00,24.3,18.7,30.50,SE,140,0.0,0.0,79,0.00,,---,0.00,VWS V14.01,2013-02-02 03:47:00,
2013-02-01 22:52:00,24.3,19.0,30.51,SE,140,0.0,1.0,80,0.00,,---,0.00,VWS V14.01,2013-02-02 03:52:00,
2013-02-01 22:57:00,24.4,19.4,30.50,SE,140,0.0,1.0,81,0.00,,---,0.00,VWS V14.01,2013-02-02 03:57:00,
2013-02-01 23:02:00,24.4,19.1,30.50,SE,140,0.0,1.0,80,0.00,,---,0.00,VWS V14.01,2013-02-02 04:02:00,
2013-02-01 23:07:00,24.3,18.7,30.51,SE,140,0.0,1.0,79,0.00,,---,0.00,VWS V14.01,2013-02-02 04:07:00,
2013-02-01 23:12:00,24.3,18.7,30.50,SE,140,0.0,1.0,79,0.00,,---,0.00,VWS V14.01,2013-02-02 04:12:00,
2013-02-01 23:17:00,24.3,19.0,30.50,SE,140,1.0,1.0,80,0.00,,---,0.00,VWS V14.01,2013-02-02 04:17:00,
2013-02-01 23:22:00,24.3,18.4,30.50,SE,140,0.0,1.0,78,0.00,,---,0.00,VWS V14.01,2013-02-02 04:22:00,
2013-02-01 23:27:00,24.4,18.8,30.51,SE,140,0.0,1.0,79,0.00,,---,0.00,VWS V14.01,2013-02-02 04:27:00,
2013-02-01 23:32:00,24.3,18.7,30.50,SE,140,0.0,1.0,79,0.00,,---,0.00,VWS V14.01,2013-02-02 04:32:00,
2013-02-01 23:37:00,24.2,18.6,30.50,SE,140,0.0,0.0,79,0.00,,---,0.00,VWS V14.01,2013-02-02 04:37:00,
2013-02-01 23:42:00,24.1,18.8,30.50,SE,140,0.0,0.0,80,0.00,,---,0.00,VWS V14.01,2013-02-02 04:42:00,
2013-02-01 23:47:00,23.9,18.6,30.50,SE,140,0.0,0.0,80,0.00,,---,0.00,VWS V14.01,2013-02-02 04:47:00,
2013-02-01 23:52:00,23.7,18.5,30.50,SE,140,0.0,0.0,80,0.00,,---,0.00,VWS V14.01,2013-02-02 04:52:00,
2013-02-01 23:57:00,23.6,19.2,30.50,SE,140,0.0,1.0,83,0.00,,---,0.00,VWS V14.01,2013-02-02 04:57:00,